< < Back
Terminal Aerodrome Forecast


Current Version              Previous Versions:   1  2  3  4  5  6  7  8  9  

Terminal Aerodrome Forecast

854
FTUS44 KHUN 262320
TAFHSV
TAF
KHSV 262320Z 2700/2724 06009KT P6SM VCTS BKN035CB BKN250
      TEMPO 2700/2701 VRB20G40KT 1SM +TSRA BKN025CB
     FM270200 VRB03KT P6SM BKN050
     FM271000 VRB03KT 4SM BR FEW010 SCT100
     FM271400 14005KT P6SM SCT035
     FM271900 11005KT P6SM VCTS BKN030CB=



Latest METAR

004
SAUS80 KWBC 270100
MTRHSV
METAR KHSV 270053Z 07003KT 8SM -TSRA FEW039 SCT047CB BKN120 23/21 A3009
RMK AO2 WSHFT 0004 LTG DSNT ALQDS TSE11B13 SLP180 CB DSNT
ALQDS FRQ LTGICCG N TS N MOV NW P0014 T02330211 $


USA.gov is the U.S. government's official web portal to all federal, state and local government web resources and services.